Time;durP1;ratioP1;P1;durP2;ratioP2;P2;SDS_P1;SDS_P2;PMS_P1;PMS_P2;Temp;Humidity;BMP_temperature;BMP_pressure;BME280_temperature;BME280_humidity;BME280_pressure;Samples;Min_cycle;Max_cycle;Signal;HPM_P1;HPM_P2
2021/10/11 00:00:29;;;;;;;10.85;7.50;;;5.20;83.40;;;;;;4875976;29;20033;-90
2021/10/11 00:02:55;;;;;;;9.48;6.65;;;5.20;83.30;;;;;;4877870;29;20040;-89
2021/10/11 00:05:21;;;;;;;9.18;6.68;;;5.10;83.20;;;;;;4882034;29;20029;-90
2021/10/11 00:07:47;;;;;;;12.52;6.80;;;5.10;83.40;;;;;;4869699;29;20021;-90
2021/10/11 00:10:19;;;;;;;10.55;7.22;;;5.00;84.00;;;;;;4874973;29;20067;-90
2021/10/11 00:12:49;;;;;;;10.45;6.82;;;4.90;83.60;;;;;;4886318;29;20112;-89
2021/10/11 00:15:16;;;;;;;10.40;6.95;;;4.90;83.70;;;;;;4873586;29;20078;-90
2021/10/11 00:17:42;;;;;;;11.20;7.15;;;4.90;83.80;;;;;;4871602;29;20112;-90
2021/10/11 00:20:09;;;;;;;11.60;6.57;;;4.80;83.90;;;;;;4878156;29;20120;-90
2021/10/11 00:22:35;;;;;;;10.02;6.28;;;4.80;84.10;;;;;;4878067;29;20040;-90
2021/10/11 00:25:01;;;;;;;11.15;6.93;;;4.70;84.20;;;;;;4879103;29;20422;-89
2021/10/11 00:27:26;;;;;;;10.57;6.55;;;4.70;84.20;;;;;;4878226;29;20180;-89
2021/10/11 00:29:52;;;;;;;9.50;6.30;;;4.70;84.20;;;;;;4873003;29;20425;-90
2021/10/11 00:32:18;;;;;;;10.25;6.55;;;4.70;84.20;;;;;;4876457;29;20036;-90
2021/10/11 00:34:43;;;;;;;13.18;7.10;;;4.70;84.20;;;;;;4872376;29;20036;-90
2021/10/11 00:37:09;;;;;;;11.73;6.30;;;4.60;84.30;;;;;;4877627;29;20043;-89
2021/10/11 00:39:34;;;;;;;8.88;5.82;;;4.60;84.40;;;;;;4876540;29;20032;-89
2021/10/11 00:42:01;;;;;;;10.65;6.95;;;4.60;84.60;;;;;;4871191;29;20029;-89
2021/10/11 00:44:26;;;;;;;9.90;7.05;;;4.60;84.50;;;;;;4877254;29;20057;-89
2021/10/11 00:46:52;;;;;;;11.38;6.45;;;4.60;84.50;;;;;;4875978;29;20068;-89
2021/10/11 00:49:18;;;;;;;10.05;6.80;;;4.60;84.40;;;;;;4876504;29;20033;-90
2021/10/11 00:51:43;;;;;;;9.82;6.72;;;4.60;84.40;;;;;;4875959;29;20079;-89
2021/10/11 00:54:10;;;;;;;10.57;6.90;;;4.50;84.30;;;;;;4877021;29;20039;-89
2021/10/11 00:56:35;;;;;;;9.20;6.40;;;4.50;84.40;;;;;;4878019;29;20025;-89
2021/10/11 00:59:01;;;;;;;9.20;6.00;;;4.40;84.50;;;;;;4878000;29;20372;-89
2021/10/11 01:01:27;;;;;;;8.60;5.93;;;4.40;84.60;;;;;;4885136;29;20033;-90
2021/10/11 01:03:52;;;;;;;9.40;5.95;;;4.40;84.70;;;;;;4873150;29;20043;-89
2021/10/11 01:06:18;;;;;;;9.43;5.78;;;4.40;84.80;;;;;;4874116;29;20377;-90
2021/10/11 01:08:44;;;;;;;8.23;5.47;;;4.40;84.70;;;;;;4873571;29;20381;-90
2021/10/11 01:11:10;;;;;;;9.50;5.80;;;4.40;84.70;;;;;;4872188;29;20029;-91
2021/10/11 01:13:36;;;;;;;8.20;5.82;;;4.40;84.70;;;;;;4880035;29;20033;-90
2021/10/11 01:16:02;;;;;;;8.88;5.75;;;4.30;84.60;;;;;;4878850;29;20353;-89
2021/10/11 01:18:27;;;;;;;9.20;6.07;;;4.30;84.60;;;;;;4880577;29;20044;-90
2021/10/11 01:20:53;;;;;;;10.02;5.75;;;4.30;84.70;;;;;;4872608;29;20097;-90
2021/10/11 01:23:18;;;;;;;8.38;5.78;;;4.20;84.70;;;;;;4879225;29;20060;-90
2021/10/11 01:25:44;;;;;;;8.70;5.63;;;4.20;84.70;;;;;;4879581;29;20039;-90
2021/10/11 01:28:10;;;;;;;9.23;5.95;;;4.20;84.80;;;;;;4879904;29;20396;-89
2021/10/11 01:30:36;;;;;;;11.30;6.15;;;4.10;84.80;;;;;;4880304;29;20448;-90
2021/10/11 01:33:01;;;;;;;7.75;5.18;;;4.10;84.90;;;;;;4877248;29;20072;-90
2021/10/11 01:35:27;;;;;;;9.80;6.07;;;4.10;84.90;;;;;;4877243;29;20041;-90
2021/10/11 01:37:53;;;;;;;9.02;6.20;;;4.10;84.90;;;;;;4873936;29;20082;-90
2021/10/11 01:40:20;;;;;;;11.55;6.18;;;4.00;84.90;;;;;;4879457;29;20043;-90
2021/10/11 01:42:46;;;;;;;11.57;6.15;;;4.00;85.10;;;;;;4879918;29;20021;-90
2021/10/11 01:45:12;;;;;;;9.23;5.78;;;4.00;85.20;;;;;;4877143;29;20026;-90
2021/10/11 01:47:38;;;;;;;10.32;6.53;;;4.00;85.20;;;;;;4880131;29;20502;-91
2021/10/11 01:50:05;;;;;;;8.32;5.72;;;4.00;85.20;;;;;;4872346;29;20029;-90
2021/10/11 01:52:30;;;;;;;9.18;6.50;;;4.00;85.20;;;;;;4880543;29;20120;-91
2021/10/11 01:54:56;;;;;;;10.32;6.18;;;3.90;85.20;;;;;;4877158;29;20065;-90
2021/10/11 01:57:21;;;;;;;9.13;5.82;;;3.90;85.20;;;;;;4880303;29;20044;-90
2021/10/11 01:59:47;;;;;;;9.68;6.45;;;3.90;85.30;;;;;;4878613;29;20089;-91
2021/10/11 02:02:12;;;;;;;9.20;5.70;;;3.90;85.30;;;;;;4880415;29;20150;-90
2021/10/11 02:04:38;;;;;;;8.40;5.80;;;3.80;85.30;;;;;;4879446;29;20057;-90
2021/10/11 02:07:04;;;;;;;7.93;5.70;;;3.80;85.30;;;;;;4879671;29;20029;-90
2021/10/11 02:09:29;;;;;;;11.02;5.90;;;3.80;85.40;;;;;;4890346;29;20036;-90
2021/10/11 02:11:55;;;;;;;9.98;6.25;;;3.80;85.50;;;;;;4878833;29;20040;-90
2021/10/11 02:14:21;;;;;;;10.45;6.53;;;3.70;85.50;;;;;;4879771;29;20044;-91
2021/10/11 02:16:46;;;;;;;9.43;5.72;;;3.70;85.50;;;;;;4870090;29;20086;-90
2021/10/11 02:19:12;;;;;;;7.90;5.80;;;3.70;85.60;;;;;;4879554;29;20044;-90
2021/10/11 02:21:37;;;;;;;9.13;6.10;;;3.70;85.70;;;;;;4877365;29;20032;-90
2021/10/11 02:24:03;;;;;;;6.55;5.22;;;3.70;85.80;;;;;;4870410;29;20065;-90
2021/10/11 02:26:29;;;;;;;8.23;5.63;;;3.70;85.80;;;;;;4873971;29;20513;-90
2021/10/11 02:28:54;;;;;;;11.10;6.35;;;3.70;85.70;;;;;;4878597;29;20053;-90
2021/10/11 02:31:20;;;;;;;9.98;6.40;;;3.70;85.70;;;;;;4879371;29;20503;-90
2021/10/11 02:33:46;;;;;;;9.70;5.97;;;3.70;86.00;;;;;;4869507;29;20495;-89
2021/10/11 02:36:12;;;;;;;11.73;6.82;;;3.60;85.50;;;;;;4875923;29;20396;-89
2021/10/11 02:38:38;;;;;;;8.73;6.38;;;3.50;85.30;;;;;;4876629;29;20026;-90
2021/10/11 02:41:03;;;;;;;10.45;6.30;;;3.40;85.10;;;;;;4874561;29;20441;-90
2021/10/11 02:43:29;;;;;;;8.18;5.43;;;3.30;85.20;;;;;;4893467;29;20117;-90
2021/10/11 02:45:55;;;;;;;11.02;6.07;;;3.10;85.30;;;;;;4879433;29;20033;-90
2021/10/11 02:48:21;;;;;;;9.82;5.93;;;3.10;85.50;;;;;;4885392;29;20021;-90
2021/10/11 02:50:46;;;;;;;9.48;6.22;;;3.00;86.00;;;;;;4871226;29;20029;-90
2021/10/11 02:53:12;;;;;;;9.55;6.72;;;3.00;86.20;;;;;;4869207;29;20041;-90
2021/10/11 02:55:38;;;;;;;8.73;5.72;;;3.10;86.30;;;;;;4872647;29;20065;-90
2021/10/11 02:58:03;;;;;;;8.95;5.95;;;3.00;86.30;;;;;;4878153;29;20037;-90
2021/10/11 03:00:29;;;;;;;10.10;6.22;;;3.10;86.40;;;;;;4879433;29;20112;-91
2021/10/11 03:02:54;;;;;;;10.25;5.82;;;3.10;86.50;;;;;;4869317;29;20033;-90
2021/10/11 03:05:20;;;;;;;9.35;6.20;;;3.10;86.60;;;;;;4877310;29;20108;-90
2021/10/11 03:07:46;;;;;;;10.43;6.30;;;3.10;86.60;;;;;;4877801;29;20032;-90
2021/10/11 03:10:12;;;;;;;11.05;6.07;;;3.20;86.70;;;;;;4871895;29;20036;-90
2021/10/11 03:12:38;;;;;;;11.10;5.93;;;3.10;86.70;;;;;;4878508;29;20029;-91
2021/10/11 03:15:05;;;;;;;8.93;5.80;;;3.20;86.70;;;;;;4879530;29;20120;-90
2021/10/11 03:17:31;;;;;;;10.10;6.15;;;3.20;86.60;;;;;;4877167;29;20025;-90
2021/10/11 03:19:56;;;;;;;9.27;5.47;;;3.20;86.60;;;;;;4873364;29;20081;-90
2021/10/11 03:24:53;;;;;;;8.52;5.68;;;3.20;86.50;;;;;;4879450;29;20053;-65
2021/10/11 03:27:19;;;;;;;10.23;6.68;;;3.20;86.40;;;;;;4890930;29;20037;-65
2021/10/11 03:29:45;;;;;;;8.95;5.75;;;3.10;86.10;;;;;;4880363;29;20097;-66
2021/10/11 03:32:10;;;;;;;11.20;6.20;;;3.00;86.10;;;;;;4895047;29;20036;-65
2021/10/11 03:34:36;;;;;;;11.25;5.97;;;2.90;86.50;;;;;;4887252;29;20072;-65
2021/10/11 03:37:01;;;;;;;11.40;6.97;;;2.90;86.70;;;;;;4887601;29;20126;-66
2021/10/11 03:39:27;;;;;;;9.80;5.97;;;2.90;86.90;;;;;;4890998;29;20037;-65
2021/10/11 03:41:52;;;;;;;8.77;5.78;;;2.90;87.30;;;;;;4887774;29;20157;-65
2021/10/11 03:44:18;;;;;;;13.85;6.07;;;2.80;86.70;;;;;;4893499;29;20021;-65
2021/10/11 03:46:43;;;;;;;11.98;6.28;;;2.80;86.90;;;;;;4888750;29;20083;-65
2021/10/11 03:49:09;;;;;;;9.85;5.93;;;2.80;87.30;;;;;;4891907;29;20056;-66
2021/10/11 03:51:35;;;;;;;12.75;6.78;;;2.80;87.00;;;;;;4877111;29;20044;-64
2021/10/11 03:54:01;;;;;;;9.98;6.70;;;2.80;87.10;;;;;;4892596;29;20179;-65
2021/10/11 03:56:26;;;;;;;11.50;6.93;;;2.80;87.10;;;;;;4887759;29;20036;-66
2021/10/11 03:58:52;;;;;;;12.23;7.15;;;2.70;87.00;;;;;;4890771;29;20355;-65
2021/10/11 04:01:17;;;;;;;10.45;6.38;;;2.70;87.10;;;;;;4896399;29;20067;-65
2021/10/11 04:03:43;;;;;;;11.43;6.50;;;2.70;87.20;;;;;;4891094;29;20044;-65
2021/10/11 04:06:10;;;;;;;9.40;6.13;;;2.60;86.90;;;;;;4881972;29;20032;-65
2021/10/11 04:08:38;;;;;;;9.80;5.97;;;2.50;87.00;;;;;;4883065;29;20502;-63
2021/10/11 04:11:21;;;;;;;9.70;6.18;;;2.50;87.40;;;;;;4887412;29;20517;-63
2021/10/11 04:13:46;;;;;;;8.40;5.57;;;2.50;87.50;;;;;;4891493;29;20040;-65
2021/10/11 04:16:13;;;;;;;10.20;6.38;;;2.60;87.50;;;;;;4888448;29;20413;-64
2021/10/11 04:18:39;;;;;;;11.63;7.07;;;2.70;87.40;;;;;;4895633;29;20028;-65
2021/10/11 04:21:05;;;;;;;13.02;7.43;;;2.70;87.40;;;;;;4887888;29;20087;-65
2021/10/11 04:23:31;;;;;;;11.82;7.07;;;2.70;87.30;;;;;;4887668;29;20499;-65
2021/10/11 04:25:57;;;;;;;12.48;6.45;;;2.70;87.30;;;;;;4891422;29;20041;-65
2021/10/11 04:28:23;;;;;;;9.30;6.63;;;2.70;87.40;;;;;;4886601;29;20035;-65
2021/10/11 04:30:49;;;;;;;9.88;6.50;;;2.70;87.50;;;;;;4877642;29;20116;-65
2021/10/11 04:33:16;;;;;;;8.68;5.88;;;2.70;87.50;;;;;;4883557;29;20033;-65
2021/10/11 04:35:42;;;;;;;9.27;6.28;;;2.70;87.50;;;;;;4896636;29;20029;-65
2021/10/11 04:38:08;;;;;;;9.55;6.28;;;2.70;87.50;;;;;;4886826;29;20043;-64
2021/10/11 04:40:35;;;;;;;11.73;6.38;;;2.70;87.50;;;;;;4890618;29;20128;-64
2021/10/11 04:43:00;;;;;;;9.50;6.60;;;2.70;87.60;;;;;;4890020;29;20485;-65
2021/10/11 04:45:29;;;;;;;9.35;5.70;;;2.70;87.70;;;;;;4879495;29;20071;-65
2021/10/11 04:47:56;;;;;;;9.45;6.00;;;2.60;87.80;;;;;;4882645;29;20033;-65
2021/10/11 04:50:22;;;;;;;9.45;5.97;;;2.60;87.70;;;;;;4881172;29;20040;-64
2021/10/11 04:52:47;;;;;;;9.07;6.15;;;2.60;87.30;;;;;;4887245;29;20029;-64
2021/10/11 04:55:13;;;;;;;8.65;5.63;;;2.50;87.00;;;;;;4885341;29;20021;-65
2021/10/11 04:57:39;;;;;;;8.18;6.07;;;2.40;87.40;;;;;;4892359;29;20041;-64
2021/10/11 05:00:05;;;;;;;10.88;6.50;;;2.30;87.30;;;;;;4877609;29;20089;-63
2021/10/11 05:02:31;;;;;;;9.63;5.57;;;2.20;87.20;;;;;;4886405;29;20418;-64
2021/10/11 05:04:56;;;;;;;12.80;6.15;;;2.10;87.10;;;;;;4878490;29;20116;-64
2021/10/11 05:07:22;;;;;;;9.50;6.15;;;2.10;87.40;;;;;;4890443;29;20382;-64
2021/10/11 05:09:47;;;;;;;9.65;6.53;;;2.00;87.80;;;;;;4885376;29;20044;-65
2021/10/11 05:12:13;;;;;;;9.20;6.10;;;2.10;88.00;;;;;;4882677;29;20029;-65
2021/10/11 05:14:38;;;;;;;10.73;6.63;;;2.10;88.20;;;;;;4885269;29;20040;-66
2021/10/11 05:17:04;;;;;;;10.68;6.43;;;2.10;88.30;;;;;;4874704;29;20562;-64
2021/10/11 05:19:30;;;;;;;13.98;7.05;;;2.10;88.30;;;;;;4878735;29;20497;-66
2021/10/11 05:21:55;;;;;;;10.02;6.15;;;2.20;88.30;;;;;;4878056;29;20196;-65
2021/10/11 05:24:23;;;;;;;9.82;6.88;;;2.20;88.20;;;;;;4884170;29;20032;-64
2021/10/11 05:26:53;;;;;;;12.43;6.60;;;2.20;88.40;;;;;;4889601;29;20041;-65
2021/10/11 05:29:20;;;;;;;11.80;7.35;;;2.20;88.50;;;;;;4892871;29;20072;-64
2021/10/11 05:31:46;;;;;;;13.30;6.97;;;2.30;88.40;;;;;;4884854;29;20032;-64
2021/10/11 05:34:13;;;;;;;13.38;7.47;;;2.20;88.10;;;;;;4886877;29;20074;-64
2021/10/11 05:36:39;;;;;;;12.43;6.80;;;2.20;88.10;;;;;;4891494;29;20020;-66
2021/10/11 05:39:04;;;;;;;9.80;6.93;;;2.10;87.90;;;;;;4885478;29;20033;-65
2021/10/11 05:41:30;;;;;;;14.23;7.07;;;2.00;88.00;;;;;;4892048;29;20033;-64
2021/10/11 05:43:55;;;;;;;12.65;7.13;;;2.00;88.00;;;;;;4881886;29;20431;-65
2021/10/11 05:46:21;;;;;;;12.38;6.40;;;1.90;88.10;;;;;;4904095;29;20040;-64
2021/10/11 05:48:47;;;;;;;11.02;7.13;;;1.90;88.60;;;;;;4886008;29;20100;-67
2021/10/11 05:51:12;;;;;;;10.43;7.07;;;2.00;88.80;;;;;;4890053;29;20112;-63
2021/10/11 05:53:38;;;;;;;12.52;6.80;;;2.00;88.90;;;;;;4883312;29;20018;-63
2021/10/11 05:56:04;;;;;;;11.52;7.18;;;2.10;88.90;;;;;;4879309;29;20075;-65
2021/10/11 05:58:29;;;;;;;12.13;7.10;;;2.10;89.00;;;;;;4893504;29;20040;-65
2021/10/11 06:00:55;;;;;;;10.93;7.13;;;2.20;89.10;;;;;;4891760;29;20025;-66
2021/10/11 06:03:20;;;;;;;11.80;6.80;;;2.20;89.10;;;;;;4880619;29;20024;-64
2021/10/11 06:05:46;;;;;;;12.35;7.65;;;2.20;89.20;;;;;;4886452;29;20029;-65
2021/10/11 06:08:11;;;;;;;19.42;10.15;;;2.30;89.20;;;;;;4880753;29;20033;-64
2021/10/11 06:10:38;;;;;;;11.50;7.55;;;2.40;89.20;;;;;;4883783;29;20065;-66
2021/10/11 06:13:04;;;;;;;10.00;6.60;;;2.50;89.30;;;;;;4883730;29;20025;-65
2021/10/11 06:15:29;;;;;;;12.10;7.47;;;2.50;89.10;;;;;;4894052;29;20028;-64
2021/10/11 06:17:55;;;;;;;11.98;8.32;;;2.60;89.10;;;;;;4894750;29;20024;-65
2021/10/11 06:20:21;;;;;;;15.45;8.20;;;2.70;89.00;;;;;;4896703;29;20040;-66
2021/10/11 06:22:46;;;;;;;14.30;7.70;;;2.70;89.10;;;;;;4898474;29;20051;-66
2021/10/11 06:25:12;;;;;;;12.27;7.28;;;2.80;89.20;;;;;;4894192;29;20482;-66
2021/10/11 06:27:38;;;;;;;11.77;7.38;;;2.90;89.30;;;;;;4892849;29;20526;-66
2021/10/11 06:30:05;;;;;;;11.10;7.75;;;3.10;89.20;;;;;;4887488;29;20033;-64
2021/10/11 06:32:30;;;;;;;11.63;7.57;;;3.20;88.90;;;;;;4894778;29;20040;-63
2021/10/11 06:34:56;;;;;;;16.00;9.27;;;3.30;88.50;;;;;;4891959;29;20032;-65
2021/10/11 06:37:22;;;;;;;11.35;7.13;;;3.30;88.10;;;;;;4887143;29;20028;-63
2021/10/11 06:39:49;;;;;;;12.73;7.57;;;3.30;88.30;;;;;;4878810;29;20156;-62
2021/10/11 06:42:15;;;;;;;11.27;7.35;;;3.50;88.20;;;;;;4878500;29;20040;-64
2021/10/11 06:44:40;;;;;;;14.93;7.35;;;3.60;88.10;;;;;;4880148;29;20025;-63
2021/10/11 06:47:06;;;;;;;11.88;7.47;;;3.50;88.30;;;;;;4890165;29;20379;-62
2021/10/11 06:49:32;;;;;;;11.32;7.20;;;3.50;88.30;;;;;;4900060;29;20057;-63
2021/10/11 06:51:57;;;;;;;9.70;7.15;;;3.60;88.50;;;;;;4897218;29;20068;-61
2021/10/11 06:54:23;;;;;;;13.05;6.72;;;3.70;88.60;;;;;;4910085;29;20028;-64
2021/10/11 06:56:48;;;;;;;12.65;7.28;;;4.00;88.30;;;;;;4893145;29;20103;-65
2021/10/11 06:59:14;;;;;;;10.60;6.97;;;4.50;87.50;;;;;;4897209;29;20111;-64
2021/10/11 07:01:40;;;;;;;10.15;6.22;;;4.90;86.90;;;;;;4895186;29;20040;-65
2021/10/11 07:04:07;;;;;;;11.93;6.88;;;5.20;86.50;;;;;;4891987;29;20043;-64
2021/10/11 07:06:32;;;;;;;8.90;5.90;;;5.30;86.30;;;;;;4892770;29;20029;-65
2021/10/11 07:08:58;;;;;;;8.48;6.07;;;5.40;86.70;;;;;;4899405;29;20123;-64
2021/10/11 07:11:23;;;;;;;10.05;5.88;;;5.50;86.60;;;;;;4890718;29;20061;-62
2021/10/11 07:13:49;;;;;;;10.75;6.53;;;5.70;86.50;;;;;;4890653;29;20549;-65
2021/10/11 07:16:15;;;;;;;10.27;5.95;;;6.00;86.40;;;;;;4895212;29;20441;-66
2021/10/11 07:18:40;;;;;;;9.25;5.68;;;6.10;86.20;;;;;;4891657;29;20033;-67
2021/10/11 07:21:07;;;;;;;8.60;6.63;;;6.30;86.30;;;;;;4889986;29;20064;-65
2021/10/11 07:23:33;;;;;;;9.55;6.00;;;6.50;86.20;;;;;;4893749;29;20059;-64
2021/10/11 07:26:01;;;;;;;27.48;11.75;;;6.70;85.90;;;;;;4897888;29;20091;-66
2021/10/11 07:28:27;;;;;;;11.32;7.10;;;7.00;85.40;;;;;;4891810;29;20513;-65
2021/10/11 07:30:53;;;;;;;9.73;7.28;;;7.40;84.90;;;;;;4889792;29;20072;-64
2021/10/11 07:33:20;;;;;;;11.82;6.60;;;7.70;84.10;;;;;;4890044;29;20025;-64
2021/10/11 07:35:45;;;;;;;7.90;6.10;;;7.90;83.70;;;;;;4891573;29;20504;-65
2021/10/11 07:38:11;;;;;;;7.85;6.15;;;7.90;83.90;;;;;;4889769;29;20033;-65
2021/10/11 07:40:37;;;;;;;10.02;6.80;;;8.00;84.40;;;;;;4895486;29;20035;-64
2021/10/11 07:43:03;;;;;;;11.02;6.18;;;8.10;83.70;;;;;;4897708;29;20047;-64
2021/10/11 07:45:28;;;;;;;12.48;6.70;;;8.20;83.30;;;;;;4891206;29;20029;-66
2021/10/11 07:47:54;;;;;;;10.65;7.10;;;8.10;83.50;;;;;;4890176;29;20057;-66
2021/10/11 07:50:19;;;;;;;10.25;6.97;;;8.10;84.20;;;;;;4893622;29;20024;-64
2021/10/11 07:52:45;;;;;;;8.98;6.60;;;8.20;84.50;;;;;;4891561;29;20025;-65
2021/10/11 07:55:12;;;;;;;10.63;7.00;;;8.30;85.10;;;;;;4895350;29;20441;-66
2021/10/11 07:57:37;;;;;;;15.68;10.43;;;8.30;85.40;;;;;;4899670;29;20071;-67
2021/10/11 08:00:14;;;;;;;12.82;8.88;;;8.30;85.70;;;;;;4895454;29;20036;-66
2021/10/11 08:02:40;;;;;;;9.55;6.95;;;8.20;85.70;;;;;;4889715;29;20025;-66
2021/10/11 08:05:06;;;;;;;10.45;7.68;;;8.20;85.90;;;;;;4883550;29;20088;-67
2021/10/11 08:07:32;;;;;;;14.38;8.25;;;8.20;85.90;;;;;;4885701;29;20041;-67
2021/10/11 08:09:57;;;;;;;11.80;8.15;;;8.10;86.40;;;;;;4885697;29;20040;-67
2021/10/11 08:12:23;;;;;;;11.38;7.38;;;8.20;86.80;;;;;;4892882;29;20384;-67
2021/10/11 08:14:49;;;;;;;11.93;7.63;;;8.30;87.00;;;;;;4893925;29;20024;-65
2021/10/11 08:17:14;;;;;;;15.93;8.73;;;8.40;86.40;;;;;;4891404;29;20088;-66
2021/10/11 08:19:40;;;;;;;13.63;8.25;;;8.40;86.20;;;;;;4892918;29;20035;-65
2021/10/11 08:22:06;;;;;;;11.77;7.72;;;8.40;86.70;;;;;;4880294;29;20120;-65
2021/10/11 08:24:31;;;;;;;14.63;9.70;;;8.50;86.70;;;;;;4886265;29;20494;-65
2021/10/11 08:26:57;;;;;;;13.70;8.75;;;8.50;86.50;;;;;;4884513;29;20250;-65
2021/10/11 08:29:23;;;;;;;15.98;9.38;;;8.50;86.60;;;;;;4890036;29;20033;-66
2021/10/11 08:31:48;;;;;;;15.10;9.65;;;8.60;86.60;;;;;;4889149;29;20025;-66
2021/10/11 08:34:14;;;;;;;16.42;9.60;;;8.60;86.70;;;;;;4888233;29;20402;-65
2021/10/11 08:36:39;;;;;;;16.42;10.10;;;8.60;86.30;;;;;;4891078;29;20066;-67
2021/10/11 08:39:05;;;;;;;16.98;9.88;;;8.60;86.10;;;;;;4886602;29;20032;-67
2021/10/11 08:41:31;;;;;;;26.20;13.77;;;8.70;86.90;;;;;;4895915;29;20032;-68
2021/10/11 08:43:57;;;;;;;20.42;11.25;;;8.70;86.50;;;;;;4896531;29;20035;-68
2021/10/11 08:46:23;;;;;;;16.95;10.48;;;8.80;86.90;;;;;;4893840;29;20083;-67
2021/10/11 08:48:49;;;;;;;16.38;10.85;;;8.90;86.70;;;;;;4891438;29;20073;-66
2021/10/11 08:51:15;;;;;;;16.25;10.48;;;8.90;86.60;;;;;;4887607;29;20120;-67
2021/10/11 08:53:41;;;;;;;15.52;10.30;;;9.00;86.40;;;;;;4890089;29;20023;-67
2021/10/11 08:56:09;;;;;;;16.10;9.93;;;9.00;86.30;;;;;;4887871;29;20109;-68
2021/10/11 08:58:47;;;;;;;16.88;10.57;;;9.00;86.40;;;;;;4908275;29;20040;-67
2021/10/11 09:01:13;;;;;;;18.23;10.00;;;9.10;86.80;;;;;;4889286;29;20035;-67
2021/10/11 09:03:39;;;;;;;17.35;11.13;;;9.20;86.70;;;;;;4891907;29;20040;-66
2021/10/11 09:06:07;;;;;;;16.63;10.30;;;9.30;86.80;;;;;;4892647;29;20033;-66
2021/10/11 09:08:34;;;;;;;17.45;11.15;;;9.40;86.80;;;;;;4894750;29;20056;-67
2021/10/11 09:11:19;;;;;;;17.35;10.70;;;9.50;87.00;;;;;;4890336;29;20032;-67
2021/10/11 09:13:51;;;;;;;17.52;10.60;;;9.70;87.30;;;;;;4886254;29;20385;-67
2021/10/11 09:16:34;;;;;;;13.23;9.80;;;9.90;86.80;;;;;;4889691;29;20389;-68
2021/10/11 09:19:15;;;;;;;17.48;10.20;;;10.00;86.40;;;;;;4887454;29;20160;-68
2021/10/11 09:21:41;;;;;;;15.88;10.35;;;10.10;86.20;;;;;;4892298;29;20025;-66
2021/10/11 09:24:09;;;;;;;16.40;9.88;;;10.10;86.00;;;;;;4959852;23;20155;-68
2021/10/11 09:26:47;;;;;;;17.02;10.60;;;10.10;85.90;;;;;;4867812;29;20025;-68
2021/10/11 09:29:15;;;;;;;16.30;10.40;;;10.10;85.70;;;;;;4871630;29;20025;-68
2021/10/11 09:31:45;;;;;;;19.80;10.95;;;10.20;86.00;;;;;;4875151;29;20090;-68
2021/10/11 09:34:15;;;;;;;18.35;11.07;;;10.30;86.10;;;;;;4878438;29;20455;-68
2021/10/11 09:36:41;;;;;;;17.13;11.05;;;10.40;86.20;;;;;;4878196;29;20725;-68
2021/10/11 09:39:06;;;;;;;18.80;10.25;;;10.40;86.20;;;;;;4879709;29;20041;-68
2021/10/11 09:41:32;;;;;;;14.48;9.93;;;10.50;86.40;;;;;;4878646;29;20029;-68
2021/10/11 09:43:58;;;;;;;17.05;10.18;;;10.70;86.20;;;;;;4878638;29;20029;-68
2021/10/11 09:46:26;;;;;;;23.02;10.73;;;10.80;86.60;;;;;;4873658;29;20052;-69
2021/10/11 09:48:53;;;;;;;17.30;10.88;;;11.00;86.80;;;;;;4880597;29;20025;-68
2021/10/11 09:51:24;;;;;;;14.18;9.55;;;11.10;87.00;;;;;;4877504;29;20033;-68
2021/10/11 09:53:52;;;;;;;16.40;10.52;;;11.30;86.50;;;;;;4868679;29;20116;-68
2021/10/11 09:56:18;;;;;;;14.07;9.63;;;11.40;85.90;;;;;;4876411;29;20056;-68
2021/10/11 09:58:44;;;;;;;13.30;8.93;;;11.50;85.80;;;;;;4878567;29;20069;-68
2021/10/11 10:01:10;;;;;;;16.35;10.88;;;11.50;85.70;;;;;;4877680;29;20037;-69
2021/10/11 10:03:36;;;;;;;14.68;10.73;;;11.50;85.60;;;;;;4876801;29;20043;-68
2021/10/11 10:06:05;;;;;;;17.67;10.70;;;11.50;85.40;;;;;;4878618;29;20113;-68
2021/10/11 10:08:31;;;;;;;17.88;10.55;;;11.50;85.30;;;;;;4878843;29;20040;-70
2021/10/11 10:11:01;;;;;;;16.48;10.65;;;11.50;85.60;;;;;;4876009;29;20081;-70
2021/10/11 10:13:27;;;;;;;16.67;9.98;;;11.60;86.00;;;;;;4876851;29;20080;-69
2021/10/11 10:15:55;;;;;;;18.98;11.50;;;11.70;86.00;;;;;;4878640;29;20037;-70
2021/10/11 10:18:22;;;;;;;15.55;10.57;;;11.90;86.20;;;;;;4877999;29;20021;-70
2021/10/11 10:20:58;;;;;;;20.02;11.02;;;12.10;85.80;;;;;;4871851;29;20043;-70
2021/10/11 10:23:30;;;;;;;16.63;10.30;;;12.20;85.50;;;;;;4867606;29;20501;-69
2021/10/11 10:25:57;;;;;;;14.73;10.40;;;12.20;85.40;;;;;;4878367;29;20037;-70
2021/10/11 10:28:24;;;;;;;22.73;12.55;;;12.40;85.60;;;;;;4878549;29;20033;-73
2021/10/11 10:31:00;;;;;;;22.75;12.88;;;12.40;85.30;;;;;;4883483;29;20080;-70
2021/10/11 10:33:52;;;;;;;18.80;12.60;;;12.60;85.10;;;;;;4872439;29;20092;-70
2021/10/11 10:36:22;;;;;;;23.73;12.48;;;12.70;85.00;;;;;;4872707;29;20037;-70
2021/10/11 10:39:01;;;;;;;18.48;10.70;;;12.80;84.80;;;;;;4875766;29;20441;-69
2021/10/11 10:41:28;;;;;;;24.20;12.23;;;12.80;84.60;;;;;;4877353;29;20029;-70
2021/10/11 10:43:54;;;;;;;18.63;11.90;;;12.80;84.30;;;;;;4876192;29;20119;-70
2021/10/11 10:46:20;;;;;;;32.85;21.30;;;12.80;84.20;;;;;;4874087;29;20045;-69
2021/10/11 10:48:51;;;;;;;23.35;13.18;;;12.80;84.00;;;;;;4877616;29;20050;-69
2021/10/11 10:51:18;;;;;;;22.10;13.68;;;12.90;84.00;;;;;;4888558;29;20037;-69
2021/10/11 10:53:55;;;;;;;20.80;13.30;;;12.90;83.60;;;;;;4868478;29;20021;-71
2021/10/11 10:56:22;;;;;;;21.08;13.57;;;12.80;83.10;;;;;;4874408;29;20025;-70
2021/10/11 10:58:49;;;;;;;23.05;13.57;;;12.80;83.20;;;;;;4876468;29;20021;-69
2021/10/11 11:01:24;;;;;;;22.05;13.27;;;12.90;82.90;;;;;;4878510;29;20028;-69
2021/10/11 11:03:50;;;;;;;22.80;13.38;;;12.90;83.00;;;;;;4870967;29;20073;-69
2021/10/11 11:06:26;;;;;;;22.95;13.90;;;12.90;82.60;;;;;;4877054;29;20040;-69
2021/10/11 11:08:57;;;;;;;21.08;13.65;;;13.00;82.00;;;;;;4877343;29;20048;-69
2021/10/11 11:11:23;;;;;;;21.30;11.27;;;13.10;82.10;;;;;;4878116;29;20025;-69
2021/10/11 11:13:54;;;;;;;18.25;11.13;;;13.10;81.80;;;;;;4875812;29;20036;-69
2021/10/11 11:16:27;;;;;;;19.02;11.10;;;13.20;81.40;;;;;;4877063;29;20025;-69
2021/10/11 11:18:55;;;;;;;20.98;10.75;;;13.30;81.00;;;;;;4877701;29;20054;-69
2021/10/11 11:21:20;;;;;;;23.02;12.15;;;13.40;81.10;;;;;;4876766;29;20076;-69
2021/10/11 11:23:46;;;;;;;18.02;9.52;;;13.60;81.20;;;;;;4862334;29;20513;-69
2021/10/11 11:26:11;;;;;;;15.63;9.55;;;13.80;81.30;;;;;;4873153;29;20061;-69
2021/10/11 11:28:37;;;;;;;20.98;9.95;;;14.00;81.10;;;;;;4874156;29;20032;-69
2021/10/11 11:31:06;;;;;;;16.30;9.18;;;14.30;80.50;;;;;;4873833;29;20045;-69
2021/10/11 11:33:32;;;;;;;13.65;8.70;;;14.50;80.10;;;;;;4865988;29;20030;-69
2021/10/11 11:36:00;;;;;;;15.43;9.27;;;14.70;79.90;;;;;;4874287;29;20141;-69
2021/10/11 11:38:28;;;;;;;16.95;9.85;;;14.80;79.10;;;;;;4873840;29;20033;-69
2021/10/11 11:40:56;;;;;;;15.65;9.85;;;14.80;78.50;;;;;;4872364;29;20033;-69
2021/10/11 11:43:22;;;;;;;17.55;10.73;;;14.90;77.70;;;;;;4865290;29;20558;-69
2021/10/11 11:45:53;;;;;;;16.95;9.38;;;14.90;78.00;;;;;;4872761;29;20044;-69
2021/10/11 11:48:21;;;;;;;14.82;9.70;;;15.00;77.80;;;;;;4871498;29;20120;-70
2021/10/11 11:50:50;;;;;;;17.35;9.65;;;15.20;77.40;;;;;;4874137;29;20029;-69
2021/10/11 11:53:18;;;;;;;14.82;9.13;;;15.30;76.70;;;;;;4872155;29;20044;-69
2021/10/11 11:55:47;;;;;;;16.38;9.98;;;15.30;76.50;;;;;;4868843;29;20113;-69
2021/10/11 11:58:20;;;;;;;16.60;10.07;;;15.40;76.60;;;;;;4871638;29;20029;-69
2021/10/11 12:00:50;;;;;;;16.48;10.48;;;15.50;75.80;;;;;;4871425;29;20040;-69
2021/10/11 12:03:21;;;;;;;18.25;10.90;;;15.50;76.20;;;;;;4873157;29;20036;-69
2021/10/11 12:05:52;;;;;;;17.00;11.45;;;15.60;76.00;;;;;;4870924;29;20042;-70
2021/10/11 12:08:19;;;;;;;17.52;11.05;;;15.80;76.10;;;;;;4870482;29;20045;-70
2021/10/11 12:11:04;;;;;;;16.50;10.63;;;16.00;75.60;;;;;;4872911;29;20056;-69
2021/10/11 12:13:35;;;;;;;15.55;10.38;;;16.10;75.30;;;;;;4871350;29;20025;-69
2021/10/11 12:16:05;;;;;;;19.23;11.50;;;16.20;75.60;;;;;;4872756;29;20159;-69
2021/10/11 12:18:34;;;;;;;16.08;11.32;;;16.20;74.80;;;;;;4872844;29;20660;-69
2021/10/11 12:21:00;;;;;;;16.95;11.50;;;16.30;74.10;;;;;;4871021;29;20055;-69
2021/10/11 12:23:39;;;;;;;18.55;11.18;;;16.40;74.20;;;;;;4871580;29;20406;-69
2021/10/11 12:26:05;;;;;;;18.25;11.32;;;16.40;73.80;;;;;;4864538;29;20428;-69
2021/10/11 12:28:31;;;;;;;16.85;11.63;;;16.50;74.10;;;;;;4871857;29;20522;-69
2021/10/11 12:31:05;;;;;;;20.08;11.95;;;16.70;73.70;;;;;;4873038;29;20803;-70
2021/10/11 12:33:40;;;;;;;18.80;11.50;;;16.60;72.50;;;;;;4868546;29;20041;-69
2021/10/11 12:36:07;;;;;;;18.48;11.45;;;16.60;72.50;;;;;;4868000;29;20108;-70
2021/10/11 12:38:36;;;;;;;20.77;12.65;;;16.70;73.00;;;;;;4869342;29;20033;-69
2021/10/11 12:41:12;;;;;;;19.33;11.30;;;16.60;72.30;;;;;;4871163;29;20433;-69
2021/10/11 12:43:39;;;;;;;19.50;12.13;;;16.50;72.10;;;;;;4866890;29;20064;-69